Time;durP1;ratioP1;P1;durP2;ratioP2;P2;SDS_P1;SDS_P2;PMS_P1;PMS_P2;Temp;Humidity;BMP_temperature;BMP_pressure;BME280_temperature;BME280_humidity;BME280_pressure;Samples;Min_cycle;Max_cycle;Signal;HPM_P1;HPM_P2
2021/12/22 00:00:30;;;;;;;29.67;21.17;;;;;;;;;;2073437;28;20256;-56
2021/12/22 00:01:30;;;;;;;28.87;22.37;;;;;;;;;;2073599;28;20703;-52
2021/12/22 00:02:33;;;;;;;32.00;21.97;;;;;;;;;;2082012;28;20180;-54
2021/12/22 00:03:33;;;;;;;31.43;23.30;;;;;;;;;;2081721;28;20262;-55
2021/12/22 00:04:39;;;;;;;30.23;22.27;;;;;;;;;;2082165;28;20421;-56
2021/12/22 00:05:43;;;;;;;28.33;21.30;;;;;;;;;;2081742;28;20207;-55
2021/12/22 00:06:43;;;;;;;31.60;22.77;;;;;;;;;;2082356;28;20417;-55
2021/12/22 00:07:44;;;;;;;30.23;22.83;;;;;;;;;;2081916;28;20503;-52
2021/12/22 00:08:44;;;;;;;27.33;20.67;;;;;;;;;;2081849;28;20175;-55
2021/12/22 00:09:44;;;;;;;27.13;21.30;;;;;;;;;;2081387;28;20731;-57
2021/12/22 00:10:45;;;;;;;27.90;20.80;;;;;;;;;;2082397;28;20184;-54
2021/12/22 00:11:45;;;;;;;24.47;20.07;;;;;;;;;;2079194;28;20875;-55
2021/12/22 00:12:46;;;;;;;26.30;20.47;;;;;;;;;;2081965;28;20231;-56
2021/12/22 00:13:46;;;;;;;28.33;21.40;;;;;;;;;;2082293;28;20184;-57
2021/12/22 00:14:47;;;;;;;30.70;22.47;;;;;;;;;;2082505;28;20184;-58
2021/12/22 00:15:47;;;;;;;27.40;19.97;;;;;;;;;;2082964;28;20171;-57
2021/12/22 00:16:47;;;;;;;25.83;20.23;;;;;;;;;;2085457;28;20181;-57
2021/12/22 00:17:47;;;;;;;27.13;19.97;;;;;;;;;;2082263;28;20658;-58
2021/12/22 00:18:48;;;;;;;27.10;21.03;;;;;;;;;;2081678;28;20186;-53
2021/12/22 00:19:48;;;;;;;24.07;19.53;;;;;;;;;;2078868;28;20328;-59
2021/12/22 00:20:48;;;;;;;25.07;19.70;;;;;;;;;;2082306;28;20186;-59
2021/12/22 00:21:49;;;;;;;29.07;20.40;;;;;;;;;;2082505;28;20263;-56
2021/12/22 00:22:49;;;;;;;24.67;19.63;;;;;;;;;;2081135;28;20282;-56
2021/12/22 00:23:49;;;;;;;26.53;20.00;;;;;;;;;;2079942;28;20203;-55
2021/12/22 00:24:50;;;;;;;26.37;19.63;;;;;;;;;;2082616;28;20168;-57
2021/12/22 00:25:50;;;;;;;24.87;19.73;;;;;;;;;;2082243;28;20208;-54
2021/12/22 00:26:52;;;;;;;27.53;20.33;;;;;;;;;;2079646;28;20191;-54
2021/12/22 00:27:54;;;;;;;26.17;19.13;;;;;;;;;;2080664;28;20713;-58
2021/12/22 00:28:54;;;;;;;24.33;19.43;;;;;;;;;;2077407;28;22089;-57
2021/12/22 00:29:54;;;;;;;28.10;20.17;;;;;;;;;;2073396;28;20490;-57
2021/12/22 00:30:56;;;;;;;30.60;20.87;;;;;;;;;;2081909;28;20809;-53
2021/12/22 00:32:17;;;;;;;26.97;20.40;;;;;;;;;;2082216;28;20222;-57
2021/12/22 00:33:17;;;;;;;27.37;18.83;;;;;;;;;;2079227;28;20469;-53
2021/12/22 00:34:17;;;;;;;28.60;19.43;;;;;;;;;;2079787;28;20417;-59
2021/12/22 00:35:20;;;;;;;26.00;19.80;;;;;;;;;;2072724;28;20205;-57
2021/12/22 00:36:21;;;;;;;26.87;20.10;;;;;;;;;;2074744;28;20185;-58
2021/12/22 00:37:23;;;;;;;24.87;17.97;;;;;;;;;;2082278;28;20413;-51
2021/12/22 00:38:23;;;;;;;23.90;18.87;;;;;;;;;;2081997;28;20422;-57
2021/12/22 00:39:23;;;;;;;30.30;21.03;;;;;;;;;;2076869;28;20469;-55
2021/12/22 00:40:24;;;;;;;26.87;18.80;;;;;;;;;;2082222;28;20176;-59
2021/12/22 00:41:24;;;;;;;25.80;19.13;;;;;;;;;;2082311;28;20177;-56
2021/12/22 00:42:24;;;;;;;29.03;20.17;;;;;;;;;;2082208;28;20164;-56
2021/12/22 00:43:25;;;;;;;28.13;20.23;;;;;;;;;;2080239;28;20622;-57
2021/12/22 00:44:26;;;;;;;22.60;18.87;;;;;;;;;;2082206;28;20180;-53
2021/12/22 00:45:28;;;;;;;30.37;20.90;;;;;;;;;;2082523;28;20536;-55
2021/12/22 00:46:28;;;;;;;27.60;20.57;;;;;;;;;;2081699;28;20429;-55
2021/12/22 00:47:30;;;;;;;28.33;20.93;;;;;;;;;;2076650;28;20421;-53
2021/12/22 00:48:30;;;;;;;26.67;19.40;;;;;;;;;;2080761;28;20689;-57
2021/12/22 00:49:30;;;;;;;27.37;19.83;;;;;;;;;;2081356;28;20428;-57
2021/12/22 00:50:31;;;;;;;26.63;19.87;;;;;;;;;;2080668;28;20165;-54
2021/12/22 00:51:32;;;;;;;26.23;19.03;;;;;;;;;;2072423;28;20185;-55
2021/12/22 00:52:32;;;;;;;24.70;19.10;;;;;;;;;;2076438;28;20421;-55
2021/12/22 00:53:32;;;;;;;26.80;19.63;;;;;;;;;;2082312;28;20176;-53
2021/12/22 00:54:33;;;;;;;26.47;20.23;;;;;;;;;;2080682;28;20208;-52
2021/12/22 00:55:34;;;;;;;24.10;18.87;;;;;;;;;;2082056;28;20425;-54
2021/12/22 00:56:37;;;;;;;26.30;20.73;;;;;;;;;;2082261;28;20267;-54
2021/12/22 00:57:39;;;;;;;28.47;20.37;;;;;;;;;;2080795;28;20580;-56
2021/12/22 00:58:39;;;;;;;27.37;19.43;;;;;;;;;;2064901;28;20435;-55
2021/12/22 00:59:39;;;;;;;27.00;18.87;;;;;;;;;;2065508;28;20414;-53
2021/12/22 01:00:39;;;;;;;27.07;19.33;;;;;;;;;;2073148;28;20220;-55
2021/12/22 01:01:40;;;;;;;25.07;18.73;;;;;;;;;;2077609;28;20184;-52
2021/12/22 01:02:40;;;;;;;26.13;20.00;;;;;;;;;;2077168;28;20188;-51
2021/12/22 01:03:40;;;;;;;25.20;18.70;;;;;;;;;;2072445;28;20288;-53
2021/12/22 01:04:41;;;;;;;27.57;20.17;;;;;;;;;;2082035;28;20168;-51
2021/12/22 01:05:41;;;;;;;25.50;20.30;;;;;;;;;;2075596;28;20180;-52
2021/12/22 01:06:42;;;;;;;25.70;18.07;;;;;;;;;;2073203;28;20457;-53
2021/12/22 01:07:43;;;;;;;29.17;20.27;;;;;;;;;;2081006;28;20555;-55
2021/12/22 01:08:43;;;;;;;26.57;20.53;;;;;;;;;;2080001;28;20551;-57
2021/12/22 01:09:44;;;;;;;29.40;20.33;;;;;;;;;;2072783;28;20494;-57
2021/12/22 01:10:44;;;;;;;25.77;17.53;;;;;;;;;;2069110;28;20713;-56
2021/12/22 01:11:45;;;;;;;24.50;18.27;;;;;;;;;;2072536;28;20272;-56
2021/12/22 01:12:45;;;;;;;25.73;18.83;;;;;;;;;;2077339;28;20201;-55
2021/12/22 01:13:45;;;;;;;24.53;18.03;;;;;;;;;;2081217;28;20211;-57
2021/12/22 01:14:46;;;;;;;28.47;19.30;;;;;;;;;;2081388;28;20234;-54
2021/12/22 01:15:46;;;;;;;24.97;17.73;;;;;;;;;;2076524;28;20668;-54
2021/12/22 01:16:49;;;;;;;25.63;19.17;;;;;;;;;;2078584;28;20175;-54
2021/12/22 01:17:57;;;;;;;25.40;19.23;;;;;;;;;;2080923;28;20184;-55
2021/12/22 01:19:01;;;;;;;22.53;17.07;;;;;;;;;;2072628;28;20464;-55
2021/12/22 01:20:09;;;;;;;22.43;17.50;;;;;;;;;;2072902;28;20448;-60
2021/12/22 01:22:46;;;;;;;20.63;16.90;;;;;;;;;;2075205;28;20457;-51
2021/12/22 01:24:13;;;;;;;24.20;16.23;;;;;;;;;;2080947;28;20941;-54
2021/12/22 01:25:15;;;;;;;21.73;16.93;;;;;;;;;;2077901;28;20435;-55
2021/12/22 01:26:16;;;;;;;24.87;17.40;;;;;;;;;;2073444;28;20415;-58
2021/12/22 01:27:22;;;;;;;21.80;16.80;;;;;;;;;;2074986;28;20574;-57
2021/12/22 01:28:24;;;;;;;25.57;17.57;;;;;;;;;;2074402;28;20707;-56
2021/12/22 01:29:25;;;;;;;24.10;17.80;;;;;;;;;;2074636;28;20421;-54
2021/12/22 01:30:26;;;;;;;21.40;17.03;;;;;;;;;;2081319;28;20432;-53
2021/12/22 01:31:26;;;;;;;24.17;18.43;;;;;;;;;;2081277;28;20164;-52
2021/12/22 01:32:27;;;;;;;23.47;17.73;;;;;;;;;;2072387;28;20426;-54
2021/12/22 01:33:27;;;;;;;23.77;18.70;;;;;;;;;;2072176;28;20199;-52
2021/12/22 01:34:28;;;;;;;27.90;19.37;;;;;;;;;;2077750;28;21493;-53
2021/12/22 01:35:29;;;;;;;21.97;18.03;;;;;;;;;;2079954;28;20203;-51
2021/12/22 01:36:30;;;;;;;25.73;17.93;;;;;;;;;;2075671;28;20176;-54
2021/12/22 01:37:30;;;;;;;23.47;20.07;;;;;;;;;;2072092;28;20443;-52
2021/12/22 01:38:31;;;;;;;22.43;17.17;;;;;;;;;;2062414;28;20231;-52
2021/12/22 01:39:31;;;;;;;23.60;19.10;;;;;;;;;;2069768;28;20631;-57
2021/12/22 01:40:35;;;;;;;26.27;18.47;;;;;;;;;;2067554;28;20177;-56
2021/12/22 01:41:35;;;;;;;24.63;17.83;;;;;;;;;;2067709;28;20247;-53
2021/12/22 01:42:36;;;;;;;23.83;18.10;;;;;;;;;;2077142;28;20410;-53
2021/12/22 01:43:36;;;;;;;22.23;17.77;;;;;;;;;;2081202;28;20186;-54
2021/12/22 01:44:59;;;;;;;22.43;18.17;;;;;;;;;;2081031;28;20207;-54
2021/12/22 01:50:06;;;;;;;23.20;15.87;;;;;;;;;;2077861;28;20911;-58
2021/12/22 01:51:07;;;;;;;24.80;17.20;;;;;;;;;;2080593;28;20463;-56
2021/12/22 01:52:07;;;;;;;20.33;16.17;;;;;;;;;;2081269;28;20457;-56
2021/12/22 01:53:23;;;;;;;24.33;18.63;;;;;;;;;;2081400;28;20472;-61
2021/12/22 01:54:46;;;;;;;27.00;17.83;;;;;;;;;;2078257;28;20172;-59
2021/12/22 01:55:58;;;;;;;27.67;18.20;;;;;;;;;;2048768;28;20409;-60
2021/12/22 01:57:01;;;;;;;22.00;18.33;;;;;;;;;;2077823;28;20476;-57
2021/12/22 01:58:02;;;;;;;27.03;18.87;;;;;;;;;;2072685;28;20533;-57
2021/12/22 01:59:04;;;;;;;30.93;22.87;;;;;;;;;;2074566;28;20406;-61
2021/12/22 02:00:05;;;;;;;29.17;20.83;;;;;;;;;;2079969;28;20187;-59
2021/12/22 02:01:15;;;;;;;26.80;18.50;;;;;;;;;;2081047;28;20405;-60
2021/12/22 02:02:15;;;;;;;23.20;19.40;;;;;;;;;;2081376;28;20897;-59
2021/12/22 02:03:16;;;;;;;27.20;18.00;;;;;;;;;;2081701;28;20421;-58
2021/12/22 02:04:16;;;;;;;24.90;18.23;;;;;;;;;;2075483;28;20595;-54
2021/12/22 02:05:17;;;;;;;22.97;17.67;;;;;;;;;;2080738;28;20632;-56
2021/12/22 02:06:18;;;;;;;24.33;18.07;;;;;;;;;;2080299;28;20180;-58
2021/12/22 02:07:18;;;;;;;24.10;17.37;;;;;;;;;;2081386;28;20172;-53
2021/12/22 02:08:18;;;;;;;25.93;18.17;;;;;;;;;;2075014;28;20667;-56
2021/12/22 02:09:38;;;;;;;25.23;18.27;;;;;;;;;;2080079;28;20196;-55
2021/12/22 02:10:46;;;;;;;21.70;16.20;;;;;;;;;;2081003;28;20728;-59
2021/12/22 02:11:46;;;;;;;21.10;16.77;;;;;;;;;;2080840;28;20417;-54
2021/12/22 02:12:50;;;;;;;21.87;17.40;;;;;;;;;;2077421;28;20452;-52
2021/12/22 02:13:58;;;;;;;23.37;17.47;;;;;;;;;;2078334;28;20223;-51
2021/12/22 02:14:58;;;;;;;21.47;17.23;;;;;;;;;;2072107;28;20421;-57
2021/12/22 02:16:06;;;;;;;22.23;16.00;;;;;;;;;;2071767;28;20461;-55
2021/12/22 02:17:09;;;;;;;23.37;17.70;;;;;;;;;;2072580;28;20177;-56
2021/12/22 02:18:15;;;;;;;23.70;16.80;;;;;;;;;;2064484;28;20829;-56
2021/12/22 02:19:15;;;;;;;24.27;16.93;;;;;;;;;;2071920;28;20418;-57
2021/12/22 02:20:16;;;;;;;22.37;16.50;;;;;;;;;;2068950;28;20558;-55
2021/12/22 02:21:17;;;;;;;23.03;17.00;;;;;;;;;;2079398;28;20208;-53
2021/12/22 02:22:18;;;;;;;22.13;17.27;;;;;;;;;;2081427;28;20191;-57
2021/12/22 02:23:18;;;;;;;23.20;17.63;;;;;;;;;;2080480;28;20441;-53
2021/12/22 02:24:19;;;;;;;24.47;17.73;;;;;;;;;;2081273;28;20824;-56
2021/12/22 02:25:29;;;;;;;27.33;16.93;;;;;;;;;;2081066;28;20542;-57
2021/12/22 02:26:38;;;;;;;19.80;16.50;;;;;;;;;;2076256;28;20168;-55
2021/12/22 02:27:45;;;;;;;24.80;16.50;;;;;;;;;;2081104;28;20396;-54
2021/12/22 02:28:53;;;;;;;21.77;16.23;;;;;;;;;;2076691;28;20449;-55
2021/12/22 02:29:59;;;;;;;21.67;17.00;;;;;;;;;;2080251;28;20472;-54
2021/12/22 02:30:59;;;;;;;21.83;16.87;;;;;;;;;;2082838;28;20405;-53
2021/12/22 02:32:06;;;;;;;23.07;16.27;;;;;;;;;;2082723;28;20921;-55
2021/12/22 02:34:13;;;;;;;24.43;16.10;;;;;;;;;;2080494;28;20421;-58
2021/12/22 02:35:13;;;;;;;23.00;16.50;;;;;;;;;;2073119;28;20169;-55
2021/12/22 02:37:23;;;;;;;22.23;16.47;;;;;;;;;;2081254;28;20234;-54
2021/12/22 02:38:23;;;;;;;22.40;17.13;;;;;;;;;;2072483;28;20782;-55
2021/12/22 02:39:24;;;;;;;23.53;16.23;;;;;;;;;;2071371;28;20458;-53
2021/12/22 02:40:27;;;;;;;22.80;17.03;;;;;;;;;;2072479;28;20187;-56
2021/12/22 02:41:29;;;;;;;24.00;16.20;;;;;;;;;;2064475;28;20185;-54
2021/12/22 02:42:31;;;;;;;24.83;16.80;;;;;;;;;;2064862;28;20455;-57
2021/12/22 02:43:33;;;;;;;23.97;17.10;;;;;;;;;;2081110;28;20765;-56
2021/12/22 02:44:33;;;;;;;23.50;15.93;;;;;;;;;;2081316;28;20910;-57
2021/12/22 02:45:34;;;;;;;24.73;17.83;;;;;;;;;;2081249;28;20424;-54
2021/12/22 02:46:35;;;;;;;24.50;17.70;;;;;;;;;;2081266;28;20327;-54
2021/12/22 02:47:36;;;;;;;25.03;18.53;;;;;;;;;;2081251;28;20258;-54
2021/12/22 02:48:36;;;;;;;23.47;17.87;;;;;;;;;;2080987;28;20413;-54
2021/12/22 02:49:37;;;;;;;23.73;18.20;;;;;;;;;;2082711;28;20175;-53
2021/12/22 02:50:37;;;;;;;24.43;18.10;;;;;;;;;;2084183;28;20194;-60
2021/12/22 02:51:37;;;;;;;23.70;18.87;;;;;;;;;;2083859;28;20251;-57
2021/12/22 02:52:55;;;;;;;24.20;17.30;;;;;;;;;;2084070;28;20186;-57
2021/12/22 02:54:04;;;;;;;23.47;17.10;;;;;;;;;;2084073;28;20230;-57
2021/12/22 02:55:05;;;;;;;23.37;16.37;;;;;;;;;;2084079;28;20397;-54
2021/12/22 02:56:34;;;;;;;24.60;17.20;;;;;;;;;;2083952;28;20416;-57
2021/12/22 02:57:35;;;;;;;23.17;16.73;;;;;;;;;;2082900;28;20200;-56
2021/12/22 02:58:50;;;;;;;24.77;17.37;;;;;;;;;;2083140;28;20441;-59
2021/12/22 03:00:24;;;;;;;24.20;17.23;;;;;;;;;;2082715;28;20424;-57
2021/12/22 03:01:39;;;;;;;25.03;17.20;;;;;;;;;;2076666;28;21005;-56
2021/12/22 03:03:54;;;;;;;22.20;15.87;;;;;;;;;;2081817;28;20824;-57
2021/12/22 03:04:57;;;;;;;26.47;17.63;;;;;;;;;;2069733;28;20430;-56
2021/12/22 03:05:59;;;;;;;24.10;18.70;;;;;;;;;;2072973;28;20446;-53
2021/12/22 03:07:06;;;;;;;23.87;18.03;;;;;;;;;;2083904;28;20412;-56
2021/12/22 03:08:06;;;;;;;25.47;18.37;;;;;;;;;;2080325;28;20422;-54
2021/12/22 03:09:16;;;;;;;27.23;18.67;;;;;;;;;;2082736;28;20867;-59
2021/12/22 03:10:18;;;;;;;27.57;18.13;;;;;;;;;;2082291;28;20176;-56
2021/12/22 03:11:18;;;;;;;26.37;19.23;;;;;;;;;;2083722;28;20406;-55
2021/12/22 03:12:22;;;;;;;25.93;18.63;;;;;;;;;;2082991;28;20473;-59
2021/12/22 03:13:23;;;;;;;24.10;17.93;;;;;;;;;;2083379;28;20283;-53
2021/12/22 03:14:23;;;;;;;26.23;18.77;;;;;;;;;;2083334;28;20416;-55
2021/12/22 03:15:24;;;;;;;28.23;18.80;;;;;;;;;;2083458;28;20180;-53
2021/12/22 03:16:24;;;;;;;26.37;18.40;;;;;;;;;;2088169;28;20655;-56
2021/12/22 03:17:24;;;;;;;26.97;18.73;;;;;;;;;;2081412;28;20168;-54
2021/12/22 03:18:24;;;;;;;28.63;18.27;;;;;;;;;;2077754;28;20562;-57
2021/12/22 03:19:26;;;;;;;24.97;18.93;;;;;;;;;;2083717;28;20184;-56
2021/12/22 03:20:26;;;;;;;26.60;18.50;;;;;;;;;;2082212;28;20552;-55
2021/12/22 03:21:26;;;;;;;20.43;17.10;;;;;;;;;;2083797;28;20413;-53
2021/12/22 03:22:28;;;;;;;22.30;18.20;;;;;;;;;;2084160;28;20172;-53
2021/12/22 03:23:28;;;;;;;24.63;17.17;;;;;;;;;;2081406;28;20247;-53
2021/12/22 03:24:29;;;;;;;24.23;17.90;;;;;;;;;;2078665;28;20425;-53
2021/12/22 03:25:29;;;;;;;25.83;17.03;;;;;;;;;;2077885;28;20172;-56
2021/12/22 03:26:30;;;;;;;22.93;17.60;;;;;;;;;;2080462;28;20492;-57
2021/12/22 03:27:30;;;;;;;22.90;17.37;;;;;;;;;;2081207;28;20536;-53
2021/12/22 03:28:31;;;;;;;24.00;17.53;;;;;;;;;;2074494;28;20638;-53
2021/12/22 03:29:32;;;;;;;23.07;17.30;;;;;;;;;;2074300;28;20223;-56
2021/12/22 03:30:33;;;;;;;24.97;18.70;;;;;;;;;;2083424;28;20894;-57
2021/12/22 03:31:33;;;;;;;23.87;17.87;;;;;;;;;;2081054;28;20425;-53
2021/12/22 03:32:37;;;;;;;23.80;17.13;;;;;;;;;;2083912;28;20183;-51
2021/12/22 03:33:37;;;;;;;27.23;17.83;;;;;;;;;;2083258;28;20233;-54
2021/12/22 03:34:38;;;;;;;26.47;18.33;;;;;;;;;;2083436;28;20959;-53
2021/12/22 03:35:39;;;;;;;22.90;17.53;;;;;;;;;;2083125;28;20539;-54
2021/12/22 03:36:41;;;;;;;25.37;17.27;;;;;;;;;;2083233;28;20674;-54
2021/12/22 03:37:42;;;;;;;23.50;17.20;;;;;;;;;;2083205;28;20420;-50
2021/12/22 03:38:43;;;;;;;26.03;16.93;;;;;;;;;;2079843;28;20524;-53
2021/12/22 03:39:43;;;;;;;25.07;17.77;;;;;;;;;;2079040;28;20184;-49
2021/12/22 03:40:43;;;;;;;21.83;15.73;;;;;;;;;;2079961;28;20168;-51
2021/12/22 03:41:45;;;;;;;22.10;16.27;;;;;;;;;;2065704;28;20744;-50
2021/12/22 03:42:46;;;;;;;22.40;17.23;;;;;;;;;;2066024;28;20694;-51
2021/12/22 03:43:46;;;;;;;22.47;16.00;;;;;;;;;;2082427;28;20456;-55
2021/12/22 03:44:46;;;;;;;22.67;17.70;;;;;;;;;;2083185;28;20641;-56
2021/12/22 03:45:47;;;;;;;21.83;16.00;;;;;;;;;;2081474;28;20176;-55
2021/12/22 03:46:47;;;;;;;23.37;17.37;;;;;;;;;;2080168;28;20679;-52
2021/12/22 03:47:47;;;;;;;20.97;15.73;;;;;;;;;;2082663;28;20521;-51
2021/12/22 03:48:48;;;;;;;23.73;17.00;;;;;;;;;;2082571;28;20644;-52
2021/12/22 03:49:48;;;;;;;24.67;16.87;;;;;;;;;;2082485;28;20172;-49
2021/12/22 03:50:48;;;;;;;23.00;16.37;;;;;;;;;;2082899;28;20636;-52
2021/12/22 03:51:48;;;;;;;22.87;16.50;;;;;;;;;;2082790;28;20509;-49
2021/12/22 03:52:49;;;;;;;24.90;16.77;;;;;;;;;;2073822;28;20192;-51
2021/12/22 03:53:49;;;;;;;22.13;16.47;;;;;;;;;;2074747;28;20191;-53
2021/12/22 03:54:54;;;;;;;20.63;14.60;;;;;;;;;;2082763;28;20181;-52
2021/12/22 03:55:55;;;;;;;20.63;15.73;;;;;;;;;;2074754;28;20649;-52
2021/12/22 03:56:55;;;;;;;22.00;16.43;;;;;;;;;;2074066;28;20445;-57
2021/12/22 03:57:55;;;;;;;21.90;16.10;;;;;;;;;;2081073;28;20531;-56
2021/12/22 03:58:55;;;;;;;23.37;17.03;;;;;;;;;;2082749;28;20188;-53
2021/12/22 03:59:58;;;;;;;20.83;16.47;;;;;;;;;;2083654;28;20175;-58
2021/12/22 04:00:59;;;;;;;18.57;13.50;;;;;;;;;;2081359;28;20188;-51
2021/12/22 04:01:59;;;;;;;20.70;16.07;;;;;;;;;;2081557;28;20433;-51
2021/12/22 04:03:01;;;;;;;20.97;15.13;;;;;;;;;;2081910;28;20756;-56
2021/12/22 04:04:07;;;;;;;23.70;16.67;;;;;;;;;;2081462;28;20195;-55
2021/12/22 04:05:08;;;;;;;26.27;18.03;;;;;;;;;;2081814;28;20417;-54
2021/12/22 04:06:08;;;;;;;22.63;16.97;;;;;;;;;;2074378;28;20418;-56
2021/12/22 04:07:09;;;;;;;20.00;15.77;;;;;;;;;;2072773;28;20204;-54
2021/12/22 04:08:11;;;;;;;26.23;16.97;;;;;;;;;;2065446;28;20192;-52
2021/12/22 04:09:12;;;;;;;24.40;16.77;;;;;;;;;;2073238;28;20181;-52
2021/12/22 04:10:20;;;;;;;23.40;16.80;;;;;;;;;;2072840;28;20414;-58
2021/12/22 04:11:20;;;;;;;21.87;16.87;;;;;;;;;;2073895;28;20525;-57
2021/12/22 04:12:20;;;;;;;19.70;15.70;;;;;;;;;;2082396;28;20964;-59
2021/12/22 04:13:20;;;;;;;22.70;17.07;;;;;;;;;;2077158;28;20268;-58
2021/12/22 04:14:21;;;;;;;23.20;16.10;;;;;;;;;;2082452;28;20168;-59
2021/12/22 04:15:22;;;;;;;23.67;17.50;;;;;;;;;;2076865;28;20288;-55
2021/12/22 04:16:22;;;;;;;22.20;15.97;;;;;;;;;;2082260;28;20187;-57
2021/12/22 04:17:22;;;;;;;20.63;16.83;;;;;;;;;;2073438;28;20430;-55
2021/12/22 04:18:23;;;;;;;22.70;16.70;;;;;;;;;;2074669;28;20554;-51
2021/12/22 04:19:23;;;;;;;22.07;16.20;;;;;;;;;;2079657;28;20758;-53
2021/12/22 04:20:24;;;;;;;24.33;18.47;;;;;;;;;;2081462;28;20169;-56
2021/12/22 04:21:24;;;;;;;21.17;16.63;;;;;;;;;;2081746;28;20179;-56
2021/12/22 04:22:24;;;;;;;25.07;16.43;;;;;;;;;;2072612;28;20657;-53
2021/12/22 04:23:25;;;;;;;24.40;17.73;;;;;;;;;;2073434;28;20197;-55
2021/12/22 04:24:25;;;;;;;26.37;17.67;;;;;;;;;;2082075;28;20579;-57
2021/12/22 04:25:26;;;;;;;22.83;16.93;;;;;;;;;;2073666;28;20628;-56
2021/12/22 04:26:30;;;;;;;25.03;18.60;;;;;;;;;;2073516;28;20185;-56
2021/12/22 04:27:30;;;;;;;23.73;17.20;;;;;;;;;;2082368;28;20214;-56
2021/12/22 04:28:30;;;;;;;23.63;17.43;;;;;;;;;;2072762;28;20989;-53
2021/12/22 04:29:31;;;;;;;21.80;16.73;;;;;;;;;;2073244;28;20168;-53
2021/12/22 04:30:33;;;;;;;21.27;16.40;;;;;;;;;;2072557;28;20175;-52
2021/12/22 04:31:33;;;;;;;24.23;16.60;;;;;;;;;;2073500;28;20666;-57
2021/12/22 04:32:33;;;;;;;21.67;16.30;;;;;;;;;;2081024;28;20429;-56
2021/12/22 04:33:34;;;;;;;24.07;17.53;;;;;;;;;;2081440;28;20177;-55
2021/12/22 04:34:34;;;;;;;22.80;15.87;;;;;;;;;;2071746;28;20185;-55
2021/12/22 04:35:34;;;;;;;25.43;16.87;;;;;;;;;;2063823;28;20647;-59
2021/12/22 04:36:36;;;;;;;23.57;17.20;;;;;;;;;;2072689;28;20192;-55
2021/12/22 04:37:36;;;;;;;24.17;18.07;;;;;;;;;;2072913;28;20181;-52
2021/12/22 04:38:36;;;;;;;24.90;17.17;;;;;;;;;;2072650;28;20544;-52
2021/12/22 04:39:36;;;;;;;25.13;18.03;;;;;;;;;;2081272;28;20183;-53
2021/12/22 04:40:37;;;;;;;22.90;16.57;;;;;;;;;;2080868;28;20267;-52
2021/12/22 04:41:37;;;;;;;22.83;16.67;;;;;;;;;;2081666;28;20187;-53
2021/12/22 04:42:37;;;;;;;24.03;17.50;;;;;;;;;;2081350;28;20172;-52
2021/12/22 04:43:38;;;;;;;23.93;17.23;;;;;;;;;;2081816;28;20251;-57
2021/12/22 04:44:38;;;;;;;24.87;17.53;;;;;;;;;;2080882;28;20540;-57
2021/12/22 04:45:38;;;;;;;24.43;18.20;;;;;;;;;;2081688;28;20222;-54
2021/12/22 04:46:39;;;;;;;22.23;15.93;;;;;;;;;;2072521;28;20173;-54
2021/12/22 04:47:39;;;;;;;20.03;16.17;;;;;;;;;;2076194;28;20649;-53
2021/12/22 04:48:39;;;;;;;21.90;16.50;;;;;;;;;;2081626;28;20173;-52
2021/12/22 04:49:40;;;;;;;22.63;17.20;;;;;;;;;;2080930;28;20176;-54
2021/12/22 04:50:40;;;;;;;26.30;17.80;;;;;;;;;;2081884;28;20231;-55
2021/12/22 04:51:48;;;;;;;25.43;17.53;;;;;;;;;;2081147;28;20179;-56
2021/12/22 04:54:03;;;;;;;21.87;16.40;;;;;;;;;;2078732;28;20870;-55
2021/12/22 04:55:04;;;;;;;20.03;15.17;;;;;;;;;;2081262;28;20416;-53
2021/12/22 04:56:04;;;;;;;22.33;16.53;;;;;;;;;;2073158;28;20795;-51
2021/12/22 04:57:05;;;;;;;23.37;16.87;;;;;;;;;;2073161;28;20478;-56
2021/12/22 04:58:05;;;;;;;23.67;18.27;;;;;;;;;;2073894;28;20192;-55
2021/12/22 04:59:05;;;;;;;26.40;18.00;;;;;;;;;;2072652;28;20728;-53
2021/12/22 05:00:07;;;;;;;22.37;16.27;;;;;;;;;;2080901;28;20218;-56
2021/12/22 05:01:07;;;;;;;22.60;15.40;;;;;;;;;;2081800;28;20176;-52
2021/12/22 05:02:07;;;;;;;21.87;16.83;;;;;;;;;;2081356;28;20464;-52
2021/12/22 05:03:08;;;;;;;26.10;18.20;;;;;;;;;;2081242;28;20200;-54
2021/12/22 05:04:08;;;;;;;22.27;16.83;;;;;;;;;;2081621;28;20207;-55
2021/12/22 05:05:09;;;;;;;25.07;17.30;;;;;;;;;;2081094;28;20251;-54
2021/12/22 05:06:09;;;;;;;25.00;17.83;;;;;;;;;;2081390;28;20188;-51
2021/12/22 05:07:09;;;;;;;25.13;18.47;;;;;;;;;;2081195;28;20168;-55
2021/12/22 05:08:09;;;;;;;24.23;18.07;;;;;;;;;;2080402;28;20290;-54
2021/12/22 05:09:10;;;;;;;23.83;17.10;;;;;;;;;;2081445;28;20176;-54
2021/12/22 05:10:10;;;;;;;23.13;17.33;;;;;;;;;;2080587;28;20657;-53
2021/12/22 05:11:10;;;;;;;23.60;16.50;;;;;;;;;;2081006;28;20188;-54
2021/12/22 05:12:11;;;;;;;24.43;17.67;;;;;;;;;;2081519;28;20179;-54
2021/12/22 05:13:11;;;;;;;23.73;17.90;;;;;;;;;;2081126;28;20239;-53
2021/12/22 05:14:11;;;;;;;26.57;18.77;;;;;;;;;;2080227;28;20168;-51
2021/12/22 05:15:12;;;;;;;25.60;18.40;;;;;;;;;;2072835;28;20173;-53
2021/12/22 05:16:18;;;;;;;25.70;17.43;;;;;;;;;;2078663;28;20552;-56
2021/12/22 05:17:28;;;;;;;24.37;17.87;;;;;;;;;;2081061;28;20157;-54
2021/12/22 05:18:48;;;;;;;27.60;17.93;;;;;;;;;;2079976;28;20451;-57
2021/12/22 05:19:49;;;;;;;25.03;17.93;;;;;;;;;;2080408;28;20429;-53
2021/12/22 05:20:49;;;;;;;27.00;17.97;;;;;;;;;;2080965;28;20511;-52
2021/12/22 05:21:50;;;;;;;25.83;18.83;;;;;;;;;;2080932;28;20180;-53
2021/12/22 05:22:50;;;;;;;25.10;17.13;;;;;;;;;;2081115;28;20191;-54
2021/12/22 05:23:51;;;;;;;27.63;18.97;;;;;;;;;;2080143;28;20263;-55
2021/12/22 05:24:52;;;;;;;27.50;18.87;;;;;;;;;;2081001;28;20177;-54
2021/12/22 05:25:52;;;;;;;30.27;20.47;;;;;;;;;;2079676;28;20542;-54
2021/12/22 05:26:52;;;;;;;30.30;19.90;;;;;;;;;;2081844;28;20172;-56
2021/12/22 05:27:52;;;;;;;29.40;19.47;;;;;;;;;;2080941;28;20552;-59
2021/12/22 05:28:54;;;;;;;30.63;20.67;;;;;;;;;;2079070;28;20176;-57
2021/12/22 05:29:55;;;;;;;32.50;19.23;;;;;;;;;;2080303;28;20263;-59
2021/12/22 05:30:55;;;;;;;29.07;20.73;;;;;;;;;;2080984;28;20417;-56
2021/12/22 05:31:56;;;;;;;28.10;19.40;;;;;;;;;;2079922;28;20176;-56
2021/12/22 05:32:56;;;;;;;25.57;18.67;;;;;;;;;;2080955;28;20622;-54
2021/12/22 05:33:57;;;;;;;26.63;19.03;;;;;;;;;;2075620;28;20193;-54
2021/12/22 05:35:01;;;;;;;30.97;20.03;;;;;;;;;;2079703;28;20267;-55
2021/12/22 05:36:01;;;;;;;29.50;19.23;;;;;;;;;;2078865;28;20215;-54
2021/12/22 05:37:02;;;;;;;33.57;20.67;;;;;;;;;;2080203;28;20810;-52
2021/12/22 05:38:02;;;;;;;33.57;21.47;;;;;;;;;;2080089;28;20178;-51
2021/12/22 05:39:02;;;;;;;31.97;20.47;;;;;;;;;;2080650;28;20235;-53
2021/12/22 05:40:04;;;;;;;30.00;20.27;;;;;;;;;;2080530;28;20188;-54
2021/12/22 05:41:04;;;;;;;30.80;19.63;;;;;;;;;;2080702;28;20180;-56
2021/12/22 05:42:04;;;;;;;31.33;20.80;;;;;;;;;;2080928;28;20406;-53
2021/12/22 05:43:05;;;;;;;28.20;19.67;;;;;;;;;;2068766;28;20265;-53
2021/12/22 05:44:05;;;;;;;34.70;23.13;;;;;;;;;;2072065;28;20208;-55
2021/12/22 05:45:05;;;;;;;30.80;20.03;;;;;;;;;;2077371;28;20214;-51
2021/12/22 05:46:06;;;;;;;31.20;20.40;;;;;;;;;;2080528;28;20275;-56
2021/12/22 05:47:06;;;;;;;31.77;20.43;;;;;;;;;;2076813;28;20272;-55
2021/12/22 05:48:06;;;;;;;32.63;20.73;;;;;;;;;;2080597;28;20195;-52
2021/12/22 05:49:06;;;;;;;29.33;19.10;;;;;;;;;;2068744;28;20201;-55
2021/12/22 05:50:07;;;;;;;35.23;21.43;;;;;;;;;;2063970;28;20213;-58
2021/12/22 05:51:08;;;;;;;31.47;20.43;;;;;;;;;;2073032;28;20243;-59
2021/12/22 05:52:08;;;;;;;28.50;18.93;;;;;;;;;;2072429;28;20189;-57
2021/12/22 05:53:08;;;;;;;29.10;19.70;;;;;;;;;;2074978;28;20196;-59
2021/12/22 05:54:08;;;;;;;35.87;21.50;;;;;;;;;;2081035;28;20184;-58
2021/12/22 05:55:08;;;;;;;30.73;20.20;;;;;;;;;;2075495;28;20185;-58
2021/12/22 05:56:11;;;;;;;32.37;20.47;;;;;;;;;;2081068;28;20215;-56
2021/12/22 05:57:11;;;;;;;33.23;21.67;;;;;;;;;;2081125;28;20176;-55
2021/12/22 05:58:11;;;;;;;31.43;21.47;;;;;;;;;;2080757;28;20464;-55
2021/12/22 05:59:12;;;;;;;32.80;21.27;;;;;;;;;;2075667;28;20191;-55
2021/12/22 06:00:12;;;;;;;28.33;20.30;;;;;;;;;;2079952;28;20179;-52
2021/12/22 06:01:13;;;;;;;36.37;22.60;;;;;;;;;;2071702;28;20231;-55
2021/12/22 06:02:13;;;;;;;34.30;21.87;;;;;;;;;;2072199;28;20189;-53
2021/12/22 06:03:13;;;;;;;34.63;21.67;;;;;;;;;;2087236;28;20227;-52
2021/12/22 06:04:14;;;;;;;36.13;22.13;;;;;;;;;;2077288;28;20267;-52
2021/12/22 06:05:14;;;;;;;33.13;21.27;;;;;;;;;;2080667;28;20663;-52
2021/12/22 06:06:14;;;;;;;36.43;22.77;;;;;;;;;;2081114;28;20199;-55
2021/12/22 06:07:15;;;;;;;33.10;20.93;;;;;;;;;;2071915;28;20204;-59
2021/12/22 06:08:15;;;;;;;36.00;20.97;;;;;;;;;;2071819;28;20185;-58
2021/12/22 06:09:15;;;;;;;30.47;20.77;;;;;;;;;;2071656;28;20213;-54
2021/12/22 06:10:16;;;;;;;31.67;21.13;;;;;;;;;;2072418;28;20172;-53